Time;durP1;ratioP1;P1;durP2;ratioP2;P2;SDS_P1;SDS_P2;PMS_P1;PMS_P2;Temp;Humidity;BMP_temperature;BMP_pressure;BME280_temperature;BME280_humidity;BME280_pressure;Samples;Min_cycle;Max_cycle;Signal;HPM_P1;HPM_P2
2022/04/21 00:00:47;;;;;;;0.80;0.77;;;;;;;1.24;90.45;94671.66;5030764;28;20243;-75
2022/04/21 00:03:15;;;;;;;1.20;1.10;;;;;;;1.00;90.46;94670.63;5031601;28;20602;-75
2022/04/21 00:05:42;;;;;;;0.50;0.50;;;;;;;1.05;90.73;94673.28;5031754;28;20546;-75
2022/04/21 00:08:09;;;;;;;1.20;1.10;;;;;;;1.01;90.45;94680.22;5031729;28;20197;-75
2022/04/21 00:10:37;;;;;;;0.77;0.50;;;;;;;1.07;90.45;94665.81;5031427;28;20205;-75
2022/04/21 00:13:03;;;;;;;1.02;1.02;;;;;;;1.11;90.25;94664.22;5031731;28;20204;-74
2022/04/21 00:15:30;;;;;;;3.17;0.68;;;;;;;1.04;90.14;94672.50;5031748;28;20208;-75
2022/04/21 00:17:59;;;;;;;0.77;0.73;;;;;;;1.11;90.21;94677.53;5031280;28;20258;-75
2022/04/21 00:20:27;;;;;;;0.95;0.93;;;;;;;0.97;89.78;94666.59;5011882;28;20267;-75
2022/04/21 00:25:38;;;;;;;0.75;0.75;;;;;;;0.98;89.90;94675.41;5040227;28;20200;-76
2022/04/21 00:28:06;;;;;;;0.85;0.63;;;;;;;1.01;89.55;94677.53;5031443;28;20290;-75
2022/04/21 00:30:33;;;;;;;0.95;0.95;;;;;;;0.96;89.45;94680.19;5031364;28;20239;-75
2022/04/21 00:33:00;;;;;;;0.55;0.55;;;;;;;0.83;89.87;94675.41;5031284;28;20208;-75
2022/04/21 00:35:28;;;;;;;0.68;0.68;;;;;;;0.80;89.92;94676.75;5031331;28;20204;-75
2022/04/21 00:37:57;;;;;;;0.55;0.55;;;;;;;0.92;90.08;94679.94;5031314;28;20208;-75
2022/04/21 00:40:26;;;;;;;0.77;0.77;;;;;;;0.78;90.56;94678.88;5031261;28;20262;-76
2022/04/21 00:42:53;;;;;;;0.52;0.52;;;;;;;0.82;91.00;94673.81;5030752;28;20294;-76
2022/04/21 00:45:20;;;;;;;0.85;0.75;;;;;;;0.74;90.96;94682.31;5031291;28;20278;-75
2022/04/21 00:47:48;;;;;;;0.93;0.50;;;;;;;0.78;91.22;94688.75;5030770;28;20216;-75
2022/04/21 00:50:18;;;;;;;0.55;0.55;;;;;;;0.81;91.12;94688.22;5030927;28;20556;-75
2022/04/21 00:52:47;;;;;;;0.70;0.70;;;;;;;0.84;91.19;94683.13;5030172;28;20212;-75
2022/04/21 00:55:14;;;;;;;0.63;0.63;;;;;;;0.89;91.09;94674.34;5030308;28;20211;-75
2022/04/21 00:57:43;;;;;;;0.35;0.35;;;;;;;0.94;90.79;94680.50;5030664;28;20200;-75
2022/04/21 01:00:12;;;;;;;1.00;1.00;;;;;;;0.90;90.67;94675.94;5031142;28;20200;-75
2022/04/21 01:02:52;;;;;;;0.30;0.30;;;;;;;0.83;91.43;94681.53;5030085;28;20224;-75
2022/04/21 01:05:26;;;;;;;0.20;0.20;;;;;;;0.89;91.51;94675.16;5030802;28;20193;-75
2022/04/21 01:07:54;;;;;;;0.40;0.40;;;;;;;0.98;91.49;94672.75;5031123;28;20204;-75
2022/04/21 01:10:22;;;;;;;2.78;1.05;;;;;;;0.92;91.16;94673.81;5030373;28;20204;-75
2022/04/21 01:12:49;;;;;;;0.57;0.57;;;;;;;0.93;91.34;94665.56;5033811;28;20215;-75
2022/04/21 01:15:16;;;;;;;0.70;0.70;;;;;;;0.96;90.15;94666.88;5035003;28;20570;-74
2022/04/21 01:17:43;;;;;;;0.98;0.93;;;;;;;1.13;90.44;94659.41;5034406;28;20234;-75
2022/04/21 01:20:15;;;;;;;0.95;0.88;;;;;;;1.23;90.13;94648.72;5034644;28;20327;-75
2022/04/21 01:22:44;;;;;;;0.30;0.30;;;;;;;1.24;89.90;94653.00;5034287;28;20216;-75
2022/04/21 01:25:11;;;;;;;3.00;1.00;;;;;;;1.25;89.69;94645.78;5049289;28;20200;-74
2022/04/21 01:27:38;;;;;;;0.52;0.52;;;;;;;1.19;89.77;94647.69;5041752;28;20247;-75
2022/04/21 01:30:07;;;;;;;0.35;0.35;;;;;;;1.23;89.27;94638.06;5047827;28;20212;-74
2022/04/21 01:32:35;;;;;;;2.58;1.02;;;;;;;1.08;89.68;94638.09;5034218;28;20276;-75
2022/04/21 01:35:04;;;;;;;0.85;0.85;;;;;;;0.99;90.08;94637.00;5034041;28;20220;-75
2022/04/21 01:43:01;;;;;;;2.60;0.68;;;;;;;1.21;90.11;94621.53;5033600;28;20239;-75
2022/04/21 01:45:28;;;;;;;2.85;0.90;;;;;;;1.16;89.74;94615.41;5034591;28;20200;-75
2022/04/21 01:47:56;;;;;;;0.73;0.73;;;;;;;1.14;89.95;94626.34;5034127;28;20278;-74
2022/04/21 01:50:23;;;;;;;0.30;0.30;;;;;;;1.13;90.05;94621.25;5034265;28;20659;-75
2022/04/21 01:52:49;;;;;;;1.17;0.98;;;;;;;1.09;90.35;94621.03;5033967;28;20196;-75
2022/04/21 01:55:18;;;;;;;0.30;0.30;;;;;;;1.04;90.44;94627.16;5034229;28;20212;-75
2022/04/21 01:57:45;;;;;;;1.40;1.10;;;;;;;1.09;90.77;94626.34;5034062;28;20229;-75
2022/04/21 02:00:13;;;;;;;1.52;1.23;;;;;;;0.94;90.27;94613.03;5033983;28;20200;-75
2022/04/21 02:02:39;;;;;;;0.45;0.38;;;;;;;0.95;90.81;94628.75;5034098;28;20243;-75
2022/04/21 02:05:07;;;;;;;0.95;0.60;;;;;;;0.99;91.12;94623.69;5033679;28;20216;-75
2022/04/21 02:07:33;;;;;;;0.50;0.50;;;;;;;0.96;90.64;94611.66;5033586;28;20204;-75
2022/04/21 02:10:00;;;;;;;1.17;1.10;;;;;;;0.88;90.59;94609.56;5033397;28;20568;-74
2022/04/21 02:12:28;;;;;;;0.85;0.77;;;;;;;0.95;90.12;94610.09;5033108;28;20747;-74
2022/04/21 02:14:55;;;;;;;1.60;1.50;;;;;;;0.91;89.66;94608.22;5033248;28;20219;-74
2022/04/21 02:17:25;;;;;;;1.20;1.15;;;;;;;0.82;89.99;94599.94;5033737;28;20200;-74
2022/04/21 02:19:52;;;;;;;0.93;0.82;;;;;;;0.70;90.37;94602.06;5033740;28;20227;-74
2022/04/21 02:22:19;;;;;;;0.52;0.52;;;;;;;0.74;90.60;94613.00;5033336;28;20344;-74
2022/04/21 02:24:46;;;;;;;1.10;1.10;;;;;;;0.60;90.31;94607.41;5043975;28;20203;-74
2022/04/21 02:27:13;;;;;;;0.68;0.65;;;;;;;0.56;90.61;94606.34;5044353;28;20668;-74
2022/04/21 02:29:41;;;;;;;0.35;0.30;;;;;;;0.58;90.75;94615.66;5032824;28;20208;-74
2022/04/21 02:32:08;;;;;;;0.60;0.35;;;;;;;0.60;90.54;94610.88;5033044;28;20303;-74
2022/04/21 02:34:35;;;;;;;1.77;0.77;;;;;;;0.61;90.24;94609.81;5033293;28;20679;-74
2022/04/21 02:37:02;;;;;;;2.78;0.80;;;;;;;0.63;90.37;94613.03;5033205;28;20212;-74
2022/04/21 02:39:29;;;;;;;0.73;0.70;;;;;;;0.54;90.66;94614.63;5032948;28;20612;-74
2022/04/21 02:41:56;;;;;;;0.73;0.73;;;;;;;0.56;90.66;94617.00;5032872;28;20781;-74
2022/04/21 02:44:23;;;;;;;0.40;0.40;;;;;;;0.65;90.41;94621.56;5032507;28;20729;-74
2022/04/21 02:46:52;;;;;;;0.45;0.45;;;;;;;0.61;90.13;94628.47;5032912;28;20252;-74
2022/04/21 02:49:20;;;;;;;0.55;0.55;;;;;;;0.64;89.71;94633.28;5033116;28;20204;-74
2022/04/21 02:51:48;;;;;;;2.47;0.60;;;;;;;0.47;90.03;94626.59;5032667;28;20219;-74
2022/04/21 02:59:43;;;;;;;0.65;0.65;;;;;;;0.47;90.82;94624.72;5021154;28;20191;-74
2022/04/21 03:02:12;;;;;;;0.30;0.30;;;;;;;0.53;90.50;94623.69;5032397;28;20715;-74
2022/04/21 03:04:39;;;;;;;0.65;0.65;;;;;;;0.44;90.69;94625.25;5032440;28;20200;-74
2022/04/21 03:07:06;;;;;;;0.75;0.75;;;;;;;0.40;90.24;94616.19;5032268;28;20204;-74
2022/04/21 03:09:33;;;;;;;2.35;0.68;;;;;;;0.46;90.47;94632.97;5032494;28;20200;-73
2022/04/21 03:12:03;;;;;;;0.30;0.30;;;;;;;0.41;90.71;94620.44;5032646;28;20208;-74
2022/04/21 03:14:30;;;;;;;0.68;0.65;;;;;;;0.41;90.21;94627.66;5032146;28;20211;-74
2022/04/21 03:16:57;;;;;;;0.93;0.90;;;;;;;0.33;90.26;94615.63;5032387;28;20207;-74
2022/04/21 03:19:25;;;;;;;0.40;0.40;;;;;;;0.30;90.88;94619.63;5032258;28;20723;-74
2022/04/21 03:24:37;;;;;;;0.55;0.55;;;;;;;0.26;91.67;94612.44;5040415;28;20199;-74
2022/04/21 03:27:05;;;;;;;1.52;1.20;;;;;;;0.42;91.56;94622.03;5031831;28;20212;-73
2022/04/21 03:29:32;;;;;;;2.38;1.58;;;;;;;0.51;91.07;94615.16;5031376;28;20204;-74
2022/04/21 03:31:59;;;;;;;0.50;0.50;;;;;;;0.48;91.21;94618.34;5031482;28;20211;-74
2022/04/21 03:34:27;;;;;;;3.95;0.75;;;;;;;0.39;91.34;94614.59;5031604;28;20555;-74
2022/04/21 03:36:54;;;;;;;1.15;0.93;;;;;;;0.33;91.85;94615.63;5031504;28;20258;-74
2022/04/21 03:39:23;;;;;;;0.40;0.40;;;;;;;0.55;91.66;94610.88;5013150;28;20212;-74
2022/04/21 03:41:53;;;;;;;1.73;0.85;;;;;;;0.67;91.67;94622.09;5024022;28;20232;-73
2022/04/21 03:44:20;;;;;;;0.63;0.63;;;;;;;0.70;91.08;94623.41;5031754;28;20287;-74
2022/04/21 03:46:47;;;;;;;0.30;0.30;;;;;;;0.80;90.85;94617.28;5031603;28;20224;-74
2022/04/21 03:49:14;;;;;;;0.88;0.85;;;;;;;0.97;90.74;94618.59;5031830;28;20667;-72
2022/04/21 03:51:43;;;;;;;0.85;0.85;;;;;;;1.55;90.94;94608.38;5031697;28;20197;-74
2022/04/21 03:54:10;;;;;;;0.90;0.88;;;;;;;2.40;89.98;94600.25;5031218;28;20200;-75
2022/04/21 03:56:37;;;;;;;0.43;0.43;;;;;;;3.18;87.19;94605.53;5031538;28;20200;-74
2022/04/21 03:59:04;;;;;;;0.68;0.65;;;;;;;3.82;83.21;94604.34;5031223;28;20332;-74
2022/04/21 04:01:31;;;;;;;1.33;1.23;;;;;;;4.07;80.09;94604.06;5031303;28;20263;-73
2022/04/21 04:03:58;;;;;;;0.82;0.77;;;;;;;4.60;79.31;94595.81;5031310;28;20228;-74
2022/04/21 04:11:51;;;;;;;1.58;1.48;;;;;;;4.96;75.35;94602.25;5030945;28;20210;-75
2022/04/21 04:14:19;;;;;;;2.17;1.98;;;;;;;5.48;74.37;94594.13;5031361;28;20200;-75
2022/04/21 04:16:46;;;;;;;1.17;1.08;;;;;;;6.29;71.86;94592.56;5031803;28;20248;-75
2022/04/21 04:19:13;;;;;;;1.42;1.33;;;;;;;6.96;69.69;94590.81;5031076;28;20226;-75
2022/04/21 04:21:40;;;;;;;5.07;1.55;;;;;;;7.13;68.52;94595.50;5030972;28;20618;-74
2022/04/21 04:24:12;;;;;;;2.47;1.75;;;;;;;7.40;68.53;94583.78;5036721;28;20563;-74
2022/04/21 04:26:38;;;;;;;0.90;0.90;;;;;;;7.45;65.75;94580.97;5032369;28;20209;-75
2022/04/21 04:29:05;;;;;;;5.38;1.42;;;;;;;7.63;65.41;94577.28;5031074;28;20559;-74
2022/04/21 04:31:33;;;;;;;4.88;2.70;;;;;;;7.51;65.00;94573.56;5030732;28;20258;-74
2022/04/21 04:34:00;;;;;;;3.35;2.47;;;;;;;7.99;65.20;94579.00;5031024;28;20215;-74
2022/04/21 04:36:28;;;;;;;2.38;2.15;;;;;;;6.96;64.63;94577.34;5030866;28;20205;-76
2022/04/21 04:38:55;;;;;;;5.05;2.88;;;;;;;6.22;67.97;94576.84;5030864;28;20314;-75
2022/04/21 04:44:08;;;;;;;2.03;1.85;;;;;;;5.97;69.58;94585.44;5030391;28;20598;-75
2022/04/21 04:46:42;;;;;;;10.38;6.55;;;;;;;5.76;71.90;94587.69;5030468;28;20700;-75
2022/04/21 04:49:10;;;;;;;3.65;1.67;;;;;;;6.39;72.10;94586.97;5030670;28;20283;-75
2022/04/21 04:51:41;;;;;;;2.38;1.60;;;;;;;6.34;70.20;94590.56;5030766;28;20200;-75
2022/04/21 04:54:08;;;;;;;1.20;1.10;;;;;;;6.18;70.12;94593.88;5046727;28;20211;-75
2022/04/21 04:56:37;;;;;;;1.65;1.55;;;;;;;5.70;70.96;94607.69;5050506;28;20211;-74
2022/04/21 04:59:05;;;;;;;0.80;0.80;;;;;;;5.48;74.16;94605.66;5033258;28;20215;-74
2022/04/21 05:01:34;;;;;;;3.25;2.53;;;;;;;6.49;70.15;94602.91;5030359;28;20222;-74
2022/04/21 05:04:05;;;;;;;5.22;2.53;;;;;;;6.10;71.03;94603.44;5029719;28;20231;-75
2022/04/21 05:06:35;;;;;;;1.60;1.50;;;;;;;5.76;72.23;94597.63;5030528;28;20659;-75
2022/04/21 05:09:02;;;;;;;2.65;2.28;;;;;;;5.25;73.93;94601.22;5030716;28;20231;-75
2022/04/21 05:11:29;;;;;;;2.45;1.40;;;;;;;5.52;73.26;94601.28;5030276;28;20389;-75
2022/04/21 05:13:57;;;;;;;1.92;1.70;;;;;;;5.85;73.55;94603.94;5016701;28;20215;-75
2022/04/21 05:16:24;;;;;;;1.75;1.65;;;;;;;5.86;71.91;94608.22;5030806;28;20196;-76
2022/04/21 05:18:52;;;;;;;3.30;3.00;;;;;;;5.54;70.74;94615.22;5030855;28;20230;-75
2022/04/21 05:21:19;;;;;;;2.38;1.00;;;;;;;4.99;72.28;94617.75;5029849;28;20235;-73
2022/04/21 05:23:48;;;;;;;2.97;2.28;;;;;;;4.72;74.14;94630.25;5033262;28;20234;-74
2022/04/21 05:26:16;;;;;;;1.98;1.80;;;;;;;4.95;74.03;94629.38;5035868;28;20232;-74
2022/04/21 05:28:44;;;;;;;1.13;1.02;;;;;;;5.18;72.30;94623.09;5038293;28;20239;-74
2022/04/21 05:31:12;;;;;;;2.25;1.02;;;;;;;5.81;71.71;94624.41;5050142;28;20208;-76
2022/04/21 05:33:39;;;;;;;0.82;0.82;;;;;;;5.65;70.73;94618.53;5049823;28;20264;-74
2022/04/21 05:36:07;;;;;;;3.75;1.63;;;;;;;6.65;68.75;94614.94;5049838;28;20211;-77
2022/04/21 05:38:35;;;;;;;1.35;1.27;;;;;;;7.28;66.00;94607.81;5050355;28;20317;-75
2022/04/21 05:41:03;;;;;;;1.65;1.45;;;;;;;7.11;64.29;94601.19;5050465;28;20239;-76
2022/04/21 05:43:40;;;;;;;2.25;2.08;;;;;;;6.64;66.18;94610.66;5040452;28;20717;-76
2022/04/21 05:46:07;;;;;;;0.60;0.60;;;;;;;6.53;66.31;94609.28;5030105;28;20227;-75
2022/04/21 05:48:36;;;;;;;1.35;1.13;;;;;;;6.44;67.11;94605.69;5030543;28;20208;-75
2022/04/21 05:51:04;;;;;;;0.98;0.88;;;;;;;6.68;68.58;94610.84;5047278;28;20261;-76
2022/04/21 05:53:36;;;;;;;2.00;1.55;;;;;;;7.20;65.85;94600.47;5050343;28;20208;-76
2022/04/21 05:56:04;;;;;;;4.65;2.15;;;;;;;7.03;66.60;94601.94;5049998;28;20200;-76
2022/04/21 05:58:31;;;;;;;1.48;1.38;;;;;;;7.31;65.20;94599.13;5051354;28;20200;-76
2022/04/21 06:00:58;;;;;;;0.88;0.85;;;;;;;6.40;68.09;94602.81;5053573;28;20213;-74
2022/04/21 06:03:25;;;;;;;3.53;1.67;;;;;;;6.46;68.00;94591.94;5025459;28;20646;-76
2022/04/21 06:05:54;;;;;;;1.38;1.27;;;;;;;6.02;69.84;94594.19;5033239;28;20278;-75
2022/04/21 06:08:20;;;;;;;1.90;1.33;;;;;;;6.38;69.13;94591.56;5033208;28;20215;-75
2022/04/21 06:10:47;;;;;;;2.10;1.88;;;;;;;6.16;69.14;94596.06;5033491;28;20204;-74
2022/04/21 06:13:15;;;;;;;2.95;1.70;;;;;;;7.01;75.15;94593.38;5033085;28;20243;-77
2022/04/21 06:15:43;;;;;;;3.60;1.80;;;;;;;8.33;82.29;94581.03;5032857;28;20278;-78
2022/04/21 06:18:10;;;;;;;1.38;1.20;;;;;;;9.85;78.43;94587.78;5032718;28;20214;-78
2022/04/21 06:20:37;;;;;;;2.83;1.92;;;;;;;9.45;70.58;94592.66;5032939;28;20244;-77
2022/04/21 06:23:05;;;;;;;2.67;2.35;;;;;;;8.67;70.53;94600.00;5048031;28;20235;-77
2022/04/21 06:25:32;;;;;;;4.28;2.80;;;;;;;8.58;63.78;94590.28;5044702;28;20211;-77
2022/04/21 06:27:59;;;;;;;4.00;2.50;;;;;;;7.68;64.91;94596.00;5032834;28;20208;-76
2022/04/21 06:30:26;;;;;;;5.75;3.10;;;;;;;7.80;65.06;94588.13;5032465;28;20270;-75
2022/04/21 06:32:53;;;;;;;3.08;2.08;;;;;;;7.31;65.90;94591.03;5033422;28;20218;-75
2022/04/21 06:35:20;;;;;;;4.20;1.40;;;;;;;7.16;66.89;94594.91;5032976;28;20273;-74
2022/04/21 06:37:47;;;;;;;2.45;2.25;;;;;;;6.42;68.41;94591.78;5032987;28;20247;-75
2022/04/21 06:40:16;;;;;;;4.88;3.10;;;;;;;5.94;70.31;94594.88;5033394;28;20575;-74
2022/04/21 06:42:43;;;;;;;2.67;2.38;;;;;;;6.22;70.51;94586.81;5032605;28;20726;-75
2022/04/21 06:48:04;;;;;;;7.93;3.67;;;;;;;6.77;69.75;94582.09;5032912;28;20199;-75
2022/04/21 06:50:33;;;;;;;7.50;4.47;;;;;;;6.16;70.77;94594.16;5033385;28;20203;-75
2022/04/21 06:53:00;;;;;;;1.85;1.73;;;;;;;6.24;71.48;94593.47;5032868;28;20384;-75
2022/04/21 06:55:28;;;;;;;1.98;1.33;;;;;;;6.95;68.95;94583.84;5032524;28;20211;-75
2022/04/21 06:57:55;;;;;;;1.63;1.52;;;;;;;7.82;66.03;94577.03;5032662;28;20201;-76
2022/04/21 07:00:24;;;;;;;2.47;2.15;;;;;;;8.11;63.50;94587.28;5030460;28;20211;-75
2022/04/21 07:02:52;;;;;;;2.33;2.13;;;;;;;8.37;62.86;94574.69;5024151;28;20229;-75
2022/04/21 07:05:19;;;;;;;2.72;1.90;;;;;;;8.73;62.25;94576.34;5028492;28;20208;-77
2022/04/21 07:07:47;;;;;;;1.90;1.80;;;;;;;7.76;61.72;94587.16;5032993;28;20211;-76
2022/04/21 07:10:15;;;;;;;0.75;0.75;;;;;;;7.68;62.15;94598.69;5032718;28;20679;-76
2022/04/21 07:12:43;;;;;;;2.10;1.88;;;;;;;8.21;62.07;94593.19;5032784;28;20215;-76
2022/04/21 07:15:12;;;;;;;1.48;1.35;;;;;;;8.16;62.22;94589.84;5032489;28;20212;-77
2022/04/21 07:17:40;;;;;;;1.52;1.13;;;;;;;8.18;62.05;94593.84;5032421;28;20606;-75
2022/04/21 07:20:09;;;;;;;0.95;0.88;;;;;;;8.00;62.59;94586.78;5032336;28;20714;-75
2022/04/21 07:22:36;;;;;;;0.80;0.80;;;;;;;8.21;62.42;94597.78;5032184;28;20651;-75
2022/04/21 07:25:05;;;;;;;7.20;2.97;;;;;;;8.25;61.63;94598.75;5041028;28;20247;-74
2022/04/21 07:27:33;;;;;;;3.10;2.10;;;;;;;8.90;61.13;94597.94;5032049;28;20212;-75
2022/04/21 07:30:02;;;;;;;1.52;1.15;;;;;;;10.08;57.81;94603.78;5031797;28;20211;-77
2022/04/21 07:32:28;;;;;;;8.77;5.35;;;;;;;9.30;58.20;94606.66;5031687;28;20687;-78
2022/04/21 07:34:55;;;;;;;1.13;0.95;;;;;;;8.71;59.30;94613.66;5032309;28;20525;-75
2022/04/21 07:37:22;;;;;;;2.15;1.88;;;;;;;9.20;58.63;94615.91;5031581;28;20219;-76
2022/04/21 07:39:49;;;;;;;2.30;1.67;;;;;;;8.66;59.85;94613.81;5032356;28;20204;-77
2022/04/21 07:42:16;;;;;;;3.35;2.15;;;;;;;8.84;59.95;94610.03;5031710;28;20235;-76
2022/04/21 07:44:43;;;;;;;2.90;2.60;;;;;;;9.44;58.57;94609.19;5051158;28;20223;-74
2022/04/21 07:47:11;;;;;;;3.40;1.23;;;;;;;9.02;58.87;94608.13;5044200;28;20223;-75
2022/04/21 07:49:47;;;;;;;2.40;1.90;;;;;;;9.56;58.84;94603.94;5012568;28;20205;-77
2022/04/21 07:55:08;;;;;;;6.20;2.28;;;;;;;11.79;53.22;94592.84;5022449;28;20678;-77
2022/04/21 07:57:35;;;;;;;4.10;2.00;;;;;;;11.73;53.68;94591.47;5036305;28;20286;-75
2022/04/21 08:00:04;;;;;;;3.17;1.90;;;;;;;12.21;51.92;94587.25;5051028;28;20215;-73
2022/04/21 08:02:33;;;;;;;2.10;1.90;;;;;;;11.80;53.18;94586.28;5031615;28;20230;-74
2022/04/21 08:05:00;;;;;;;6.30;3.42;;;;;;;12.13;52.37;94582.72;5031329;28;20239;-74
2022/04/21 08:07:27;;;;;;;9.82;6.38;;;;;;;10.93;53.84;94591.66;5017744;28;20204;-72
2022/04/21 08:09:54;;;;;;;6.70;3.58;;;;;;;10.69;54.60;94586.91;5031178;28;20204;-74
2022/04/21 08:12:21;;;;;;;3.65;3.03;;;;;;;10.19;55.84;94597.72;5030703;28;20208;-73
2022/04/21 08:14:48;;;;;;;4.60;2.53;;;;;;;9.17;58.27;94594.91;5030616;28;20212;-74
2022/04/21 08:17:14;;;;;;;13.25;6.07;;;;;;;9.60;57.17;94599.47;5037565;28;20654;-71
2022/04/21 08:19:43;;;;;;;10.23;6.13;;;;;;;10.28;55.98;94597.66;5050647;28;20239;-75
2022/04/21 08:22:12;;;;;;;8.27;5.88;;;;;;;9.80;57.04;94598.00;5042831;28;20668;-74
2022/04/21 08:32:53;;;;;;;9.27;6.30;;;;;;;11.67;53.50;94581.94;5030196;28;20338;-75
2022/04/21 08:35:21;;;;;;;10.77;6.65;;;;;;;12.23;52.32;94582.28;5030507;28;20212;-75
2022/04/21 08:37:50;;;;;;;10.13;6.40;;;;;;;12.17;51.46;94578.97;5030102;28;20227;-74
2022/04/21 08:40:18;;;;;;;9.70;6.55;;;;;;;12.96;50.26;94582.22;5030587;28;20639;-73
2022/04/21 08:42:45;;;;;;;12.35;7.18;;;;;;;12.98;49.04;94579.97;5032727;28;20236;-76
2022/04/21 08:45:13;;;;;;;12.63;7.03;;;;;;;12.64;51.22;94575.81;5050319;28;20239;-74
2022/04/21 08:47:46;;;;;;;14.38;6.85;;;;;;;12.69;50.81;94584.53;5049986;28;20291;-74
2022/04/21 08:50:14;;;;;;;11.45;6.90;;;;;;;12.14;52.08;94584.31;5049065;28;20434;-74
2022/04/21 08:52:44;;;;;;;10.25;6.45;;;;;;;12.74;50.95;94570.69;5049859;28;20203;-73
2022/04/21 08:55:11;;;;;;;9.88;6.13;;;;;;;12.95;49.93;94567.06;5050281;28;20697;-73
2022/04/21 08:57:40;;;;;;;10.55;7.20;;;;;;;13.44;49.64;94560.34;5025175;28;20208;-76
2022/04/21 09:00:09;;;;;;;10.45;7.15;;;;;;;13.43;49.29;94563.41;5030432;28;20204;-76
2022/04/21 09:02:37;;;;;;;12.90;7.25;;;;;;;13.20;48.90;94565.88;5030365;28;20200;-77
2022/04/21 09:05:05;;;;;;;12.32;7.55;;;;;;;13.21;50.60;94555.78;5030201;28;20255;-74
2022/04/21 09:07:32;;;;;;;11.52;7.45;;;;;;;13.52;48.83;94562.13;5030339;28;20204;-80
2022/04/21 09:10:11;;;;;;;16.75;9.10;;;;;;;13.48;49.27;94555.78;5029928;28;20204;-76
2022/04/21 09:12:42;;;;;;;12.45;7.70;;;;;;;12.58;51.31;94561.66;5030706;28;20227;-76
2022/04/21 09:15:11;;;;;;;10.95;7.45;;;;;;;11.93;51.61;94552.63;5030385;28;20208;-81
2022/04/21 09:17:43;;;;;;;12.00;7.90;;;;;;;12.06;51.76;94556.94;5030120;28;20196;-74
2022/04/21 09:20:11;;;;;;;10.45;7.25;;;;;;;11.38;53.67;94558.44;5034393;28;20234;-77
2022/04/21 09:22:42;;;;;;;12.52;8.07;;;;;;;11.10;54.22;94562.84;5050034;28;20327;-76
2022/04/21 09:25:11;;;;;;;13.07;7.85;;;;;;;10.42;55.81;94567.63;5045323;28;20219;-76
2022/04/21 09:27:43;;;;;;;11.00;7.13;;;;;;;10.47;55.63;94568.25;5030182;28;20204;-78
2022/04/21 09:30:12;;;;;;;13.13;7.63;;;;;;;11.28;54.27;94567.00;5030068;28;20211;-77
2022/04/21 09:32:43;;;;;;;12.45;7.18;;;;;;;12.02;52.31;94561.47;5030174;28;20602;-75
2022/04/21 09:35:11;;;;;;;13.48;7.70;;;;;;;12.75;51.52;94555.97;5021563;28;20204;-73
2022/04/21 09:37:49;;;;;;;12.90;7.72;;;;;;;13.23;51.01;94554.31;5033826;28;20243;-75
2022/04/21 09:40:22;;;;;;;18.27;9.70;;;;;;;13.04;51.26;94559.53;5033504;28;20274;-75
2022/04/21 09:42:57;;;;;;;13.27;8.98;;;;;;;12.90;51.30;94556.41;5033441;28;20244;-74
2022/04/21 09:48:21;;;;;;;13.55;7.95;;;;;;;13.08;50.32;94552.28;5022077;28;20203;-75
2022/04/21 09:50:53;;;;;;;11.52;7.55;;;;;;;13.42;49.84;94554.44;5033699;28;20737;-77
2022/04/21 09:53:23;;;;;;;12.73;7.45;;;;;;;13.21;49.86;94551.13;5033753;28;20204;-79
2022/04/21 09:55:53;;;;;;;13.45;8.60;;;;;;;12.70;50.64;94550.00;5033499;28;20668;-78
2022/04/21 09:58:20;;;;;;;12.05;7.50;;;;;;;12.43;51.68;94554.22;5033377;28;20762;-78
2022/04/21 10:00:47;;;;;;;13.50;8.57;;;;;;;12.28;51.17;94557.63;5033109;28;20312;-79
2022/04/21 10:03:15;;;;;;;13.35;7.63;;;;;;;11.66;54.07;94558.63;5033066;28;20196;-76
2022/04/21 10:05:42;;;;;;;13.93;8.77;;;;;;;11.39;54.15;94558.13;5032695;28;20743;-76
2022/04/21 10:08:11;;;;;;;15.40;8.48;;;;;;;11.63;53.91;94556.59;5033676;28;20611;-78
2022/04/21 10:10:39;;;;;;;10.88;7.53;;;;;;;11.87;53.85;94545.84;5052398;28;20218;-75
2022/04/21 10:13:08;;;;;;;14.50;8.80;;;;;;;11.20;54.32;94551.63;5053174;28;20223;-76
2022/04/21 10:15:36;;;;;;;14.27;8.82;;;;;;;11.67;54.45;94549.38;5052379;28;20307;-73
2022/04/21 10:18:06;;;;;;;15.75;8.07;;;;;;;11.64;54.48;94531.03;5052220;28;20214;-74
2022/04/21 10:20:33;;;;;;;15.90;8.93;;;;;;;11.73;53.88;94542.63;5053309;28;20211;-75
2022/04/21 10:23:02;;;;;;;17.88;8.57;;;;;;;11.93;53.94;94528.19;5052912;28;20203;-74
2022/04/21 10:25:40;;;;;;;15.88;8.88;;;;;;;12.38;54.28;94524.56;5044834;28;20723;-74
2022/04/21 10:28:42;;;;;;;24.98;9.27;;;;;;;12.29;54.14;94532.84;5031506;28;20208;-74
2022/04/21 10:31:29;;;;;;;13.02;8.07;;;;;;;12.09;53.79;94531.03;5030795;28;20738;-73
2022/04/21 10:33:57;;;;;;;11.98;8.05;;;;;;;12.32;54.07;94537.56;5031792;28;20620;-75
2022/04/21 10:36:42;;;;;;;14.77;8.38;;;;;;;11.75;53.67;94534.94;5032267;28;20231;-76
2022/04/21 10:39:22;;;;;;;13.98;8.38;;;;;;;11.62;55.18;94536.00;5033496;28;20652;-75
2022/04/21 10:42:07;;;;;;;14.90;8.98;;;;;;;11.50;55.56;94527.84;5052354;28;20215;-74
2022/04/21 10:44:43;;;;;;;12.15;7.72;;;;;;;11.43;55.59;94538.47;5051332;28;20230;-75
2022/04/21 10:47:32;;;;;;;15.95;8.98;;;;;;;11.23;55.67;94519.19;5052099;28;20629;-74
2022/04/21 10:50:00;;;;;;;12.52;8.27;;;;;;;10.87;57.04;94532.59;5052835;28;20204;-75
2022/04/21 10:58:53;;;;;;;13.15;8.30;;;;;;;11.61;55.07;94535.25;5021756;28;20211;-73
2022/04/21 11:01:35;;;;;;;15.02;7.38;;;;;;;11.79;54.75;94525.00;5032220;28;20295;-76
2022/04/21 11:04:08;;;;;;;16.00;9.38;;;;;;;12.32;53.69;94520.47;5032183;28;20212;-75
2022/04/21 11:06:45;;;;;;;11.48;7.57;;;;;;;11.96;54.27;94519.38;5045345;28;20573;-77
2022/04/21 11:09:37;;;;;;;13.70;8.32;;;;;;;12.08;54.40;94518.56;5052010;28;20206;-75
2022/04/21 11:12:06;;;;;;;13.20;7.20;;;;;;;11.95;55.68;94509.63;5033019;28;20213;-76
2022/04/21 11:14:34;;;;;;;15.95;8.73;;;;;;;11.56;56.48;94516.47;5032699;28;20296;-75
2022/04/21 11:17:04;;;;;;;13.30;7.47;;;;;;;11.78;55.90;94514.47;5032497;28;20560;-74
2022/04/21 11:19:33;;;;;;;15.75;7.95;;;;;;;10.77;58.95;94530.28;5031957;28;20740;-74
2022/04/21 11:22:01;;;;;;;15.50;8.65;;;;;;;10.83;59.28;94518.91;5031877;28;20583;-75
2022/04/21 11:24:28;;;;;;;15.68;8.10;;;;;;;11.39;57.73;94525.56;5029065;28;20228;-81
2022/04/21 11:26:56;;;;;;;13.68;8.68;;;;;;;11.17;58.18;94531.38;5031581;28;20205;-76
2022/04/21 11:29:23;;;;;;;12.75;7.95;;;;;;;11.02;59.59;94523.84;5030633;28;20204;-77
2022/04/21 11:31:55;;;;;;;15.60;9.27;;;;;;;11.19;59.57;94533.75;5038970;28;20211;-76
2022/04/21 11:34:25;;;;;;;13.30;8.77;;;;;;;11.29;59.12;94520.56;5051643;28;20204;-73
2022/04/21 11:36:54;;;;;;;15.15;8.60;;;;;;;11.20;60.75;94524.50;5051304;28;20670;-73
2022/04/21 11:39:21;;;;;;;13.10;8.07;;;;;;;11.36;59.35;94511.88;5051843;28;20215;-73
2022/04/21 11:41:52;;;;;;;13.00;8.73;;;;;;;11.67;58.82;94506.75;5041382;28;20193;-74
2022/04/21 11:44:22;;;;;;;16.10;8.98;;;;;;;11.82;57.58;94510.75;5035556;28;20289;-77
2022/04/21 11:46:49;;;;;;;11.90;7.57;;;;;;;11.80;58.16;94510.31;5051358;28;20228;-75
2022/04/21 11:49:17;;;;;;;12.98;8.48;;;;;;;12.19;56.80;94497.97;5050263;28;20211;-77
2022/04/21 11:51:47;;;;;;;15.10;8.90;;;;;;;12.60;57.37;94499.63;5050710;28;20207;-76
2022/04/21 11:54:13;;;;;;;13.50;8.65;;;;;;;12.54;56.68;94497.50;5051854;28;20257;-75
2022/04/21 11:56:40;;;;;;;10.65;6.38;;;;;;;12.47;55.94;94495.34;5049766;28;20249;-76
2022/04/21 11:59:09;;;;;;;12.95;8.07;;;;;;;12.45;56.63;94501.13;5032612;28;20228;-78
2022/04/21 12:07:08;;;;;;;9.63;6.07;;;;;;;12.51;56.50;94488.09;5046601;28;20233;-71
2022/04/21 12:09:41;;;;;;;14.43;7.18;;;;;;;12.25;56.87;94477.63;5050069;28;20204;-74
2022/04/21 12:12:08;;;;;;;11.75;7.22;;;;;;;12.22;57.73;94482.94;5050485;28;20619;-78
2022/04/21 12:14:40;;;;;;;12.25;6.90;;;;;;;12.52;56.79;94489.69;5050456;28;20203;-75
2022/04/21 12:17:07;;;;;;;13.52;7.63;;;;;;;12.35;56.53;94487.22;5050860;28;20655;-77
2022/04/21 12:19:38;;;;;;;14.85;7.25;;;;;;;12.42;56.92;94482.00;5047630;28;20295;-77
2022/04/21 12:22:08;;;;;;;8.70;6.43;;;;;;;12.74;55.81;94472.84;5044788;28;20200;-75
2022/04/21 12:24:36;;;;;;;9.52;6.53;;;;;;;12.82;55.33;94468.44;5040705;28;20223;-78
2022/04/21 12:27:05;;;;;;;8.80;5.65;;;;;;;12.06;56.05;94470.03;5030176;28;20207;-79
2022/04/21 12:29:46;;;;;;;11.98;6.10;;;;;;;12.61;56.56;94479.47;5029951;28;20203;-75
2022/04/21 12:32:13;;;;;;;8.10;4.68;;;;;;;12.77;54.02;94488.47;5031064;28;20204;-75
2022/04/21 12:34:41;;;;;;;7.72;4.97;;;;;;;12.83;54.28;94475.44;5029543;28;20223;-71
2022/04/21 12:37:09;;;;;;;7.10;5.20;;;;;;;12.99;53.99;94464.59;5039796;28;20602;-72